createdAt,value
2018-09-15T00:01:38.137Z,101609.73
2018-09-15T00:04:08.377Z,101615.37
2018-09-15T00:06:38.467Z,101608.69
2018-09-15T00:09:10.675Z,101611.00
2018-09-15T00:11:40.784Z,101605.80
2018-09-15T00:14:11.112Z,101605.27
2018-09-15T00:16:41.305Z,101603.17
2018-09-15T00:19:11.601Z,101607.09
2018-09-15T00:21:41.993Z,101607.25
2018-09-15T00:24:11.995Z,101607.64
2018-09-15T00:26:42.164Z,101613.28
2018-09-15T00:29:12.158Z,101602.55
2018-09-15T00:31:42.212Z,101607.02
2018-09-15T00:34:12.285Z,101606.40
2018-09-15T00:36:42.406Z,101612.97
2018-09-15T00:39:13.201Z,101605.27
2018-09-15T00:41:43.351Z,101608.34
2018-09-15T00:44:13.396Z,101599.36
2018-09-15T00:46:43.482Z,101597.92
2018-09-15T00:49:13.555Z,101606.16
2018-09-15T00:51:43.656Z,101605.61
2018-09-15T00:54:13.693Z,101614.23
2018-09-15T00:56:43.790Z,101609.69
2018-09-15T00:59:13.872Z,101619.64
2018-09-15T01:01:44.026Z,101612.31
2018-09-15T01:04:14.115Z,101614.84
2018-09-15T01:06:44.207Z,101612.87
2018-09-15T01:09:14.266Z,101609.72
2018-09-15T01:11:44.362Z,101607.13
2018-09-15T01:14:14.560Z,101609.36
2018-09-15T01:16:44.548Z,101611.49
2018-09-15T01:19:14.589Z,101607.52
2018-09-15T01:21:44.701Z,101610.08
2018-09-15T01:24:14.771Z,101610.08
2018-09-15T01:26:44.836Z,101613.27
2018-09-15T01:29:14.903Z,101611.02
2018-09-15T01:31:45.017Z,101612.72
2018-09-15T01:34:15.104Z,101609.36
2018-09-15T01:36:45.228Z,101603.28
2018-09-15T01:39:15.363Z,101601.83
2018-09-15T01:41:45.573Z,101601.53
2018-09-15T01:44:15.662Z,101601.42
2018-09-15T01:46:45.760Z,101603.93
2018-09-15T01:49:15.871Z,101600.67
2018-09-15T01:51:46.027Z,101596.59
2018-09-15T01:54:16.053Z,101599.48
2018-09-15T01:56:46.134Z,101588.55
2018-09-15T01:59:16.188Z,101601.00
2018-09-15T02:01:46.267Z,101597.66
2018-09-15T02:04:16.382Z,101591.12
2018-09-15T02:06:46.486Z,101589.69
2018-09-15T02:09:16.573Z,101596.80
2018-09-15T02:11:46.711Z,101598.66
2018-09-15T02:14:16.823Z,101600.41
2018-09-15T02:16:46.964Z,101605.16
2018-09-15T02:19:17.075Z,101604.06
2018-09-15T02:21:47.215Z,101605.19
2018-09-15T02:24:17.264Z,101617.39
2018-09-15T02:26:47.422Z,101615.05
2018-09-15T02:29:17.598Z,101610.56
2018-09-15T02:31:47.693Z,101610.61
2018-09-15T02:34:17.872Z,101601.66
2018-09-15T02:36:48.001Z,101607.16
2018-09-15T02:39:18.157Z,101608.20
2018-09-15T02:41:48.268Z,101613.27
2018-09-15T02:44:18.310Z,101605.92
2018-09-15T02:46:48.445Z,101609.91
2018-09-15T02:49:18.506Z,101610.13
2018-09-15T02:51:48.681Z,101610.13
2018-09-15T02:54:18.731Z,101610.30
2018-09-15T02:56:48.856Z,101620.14
2018-09-15T02:59:19.040Z,101615.66
2018-09-15T03:01:49.124Z,101610.48
2018-09-15T03:04:19.172Z,101619.33
2018-09-15T03:06:49.289Z,101620.35
2018-09-15T03:09:20.200Z,101622.92
2018-09-15T03:11:50.305Z,101629.16
2018-09-15T03:14:20.393Z,101627.31
2018-09-15T03:16:50.586Z,101626.75
2018-09-15T03:19:20.796Z,101627.70
2018-09-15T03:21:50.964Z,101628.95
2018-09-15T03:24:21.065Z,101625.89
2018-09-15T03:26:51.271Z,101619.39
2018-09-15T03:29:21.360Z,101622.03
2018-09-15T03:31:51.854Z,101625.42
2018-09-15T03:34:21.932Z,101627.25
2018-09-15T03:36:52.063Z,101624.19
2018-09-15T03:39:22.137Z,101629.14
2018-09-15T03:41:52.376Z,101625.94
2018-09-15T03:44:22.447Z,101629.25
2018-09-15T03:46:52.496Z,101623.25
2018-09-15T03:49:22.519Z,101628.56
2018-09-15T03:51:52.643Z,101625.39
2018-09-15T03:54:23.203Z,101631.53
2018-09-15T03:56:53.270Z,101626.48
2018-09-15T03:59:23.391Z,101631.41
2018-09-15T04:01:53.484Z,101633.55
2018-09-15T04:04:23.527Z,101638.98
2018-09-15T04:06:53.662Z,101640.23
2018-09-15T04:09:23.722Z,101646.41
2018-09-15T04:11:53.814Z,101645.30
2018-09-15T04:14:23.911Z,101652.92
2018-09-15T04:16:54.027Z,101658.89
2018-09-15T04:19:24.146Z,101655.53
2018-09-15T04:21:54.313Z,101651.34
2018-09-15T04:24:24.443Z,101653.02
2018-09-15T04:26:54.572Z,101654.21
2018-09-15T04:29:24.680Z,101657.31
2018-09-15T04:31:54.745Z,101657.51
2018-09-15T04:34:24.884Z,101663.74
2018-09-15T04:36:54.991Z,101662.06
2018-09-15T04:39:25.088Z,101660.37
2018-09-15T04:41:55.245Z,101657.14
2018-09-15T04:44:25.282Z,101662.95
2018-09-15T04:46:55.326Z,101667.89
2018-09-15T04:49:25.458Z,101659.48
2018-09-15T04:51:55.599Z,101664.33
2018-09-15T04:54:25.705Z,101664.86
2018-09-15T04:56:55.774Z,101669.67
2018-09-15T04:59:25.855Z,101666.14
2018-09-15T05:01:55.910Z,101671.33
2018-09-15T05:04:25.961Z,101670.86
2018-09-15T05:06:56.058Z,101671.06
2018-09-15T05:09:26.112Z,101669.25
2018-09-15T05:11:56.219Z,101668.36
2018-09-15T05:14:26.391Z,101674.70
2018-09-15T05:16:56.490Z,101671.93
2018-09-15T05:19:26.564Z,101674.93
2018-09-15T05:21:56.655Z,101671.23
2018-09-15T05:24:26.797Z,101672.91
2018-09-15T05:26:56.854Z,101678.19
2018-09-15T05:29:27.126Z,101678.09
2018-09-15T05:31:57.270Z,101682.38
2018-09-15T05:34:27.328Z,101680.20
2018-09-15T05:36:57.476Z,101685.25
2018-09-15T05:39:27.620Z,101685.64
2018-09-15T05:41:57.801Z,101693.42
2018-09-15T05:44:27.942Z,101695.20
2018-09-15T05:46:58.083Z,101693.14
2018-09-15T05:49:28.256Z,101697.83
2018-09-15T05:51:58.343Z,101703.91
2018-09-15T05:54:28.462Z,101706.22
2018-09-15T05:56:58.556Z,101712.39
2018-09-15T05:59:28.678Z,101707.92
2018-09-15T06:01:58.928Z,101706.44
2018-09-15T06:04:29.028Z,101711.36
2018-09-15T06:06:59.125Z,101719.95
2018-09-15T06:09:29.189Z,101719.11
2018-09-15T06:11:59.327Z,101724.42
2018-09-15T06:14:29.395Z,101726.62
2018-09-15T06:16:59.507Z,101724.94
2018-09-15T06:19:29.570Z,101728.81
2018-09-15T06:21:59.644Z,101734.23
2018-09-15T06:24:29.746Z,101738.13
2018-09-15T06:26:59.942Z,101746.55
2018-09-15T06:29:30.024Z,101752.19
2018-09-15T06:32:00.182Z,101748.70
2018-09-15T06:34:30.276Z,101750.39
2018-09-15T06:37:00.413Z,101740.29
2018-09-15T06:39:30.568Z,101748.64
2018-09-15T06:42:00.722Z,101748.00
2018-09-15T06:44:30.823Z,101752.39
2018-09-15T06:47:01.025Z,101746.99
2018-09-15T06:49:31.165Z,101747.81
2018-09-15T06:52:01.287Z,101749.86
2018-09-15T06:54:31.363Z,101745.92
2018-09-15T06:57:01.515Z,101749.16
2018-09-15T06:59:31.588Z,101744.86
2018-09-15T07:02:01.677Z,101745.23
2018-09-15T07:04:31.772Z,101742.36
2018-09-15T07:07:01.912Z,101744.56
2018-09-15T07:09:32.062Z,101744.35
2018-09-15T07:12:02.181Z,101749.45
2018-09-15T07:14:32.268Z,101753.16
2018-09-15T07:17:02.356Z,101765.44
2018-09-15T07:19:32.438Z,101764.63
2018-09-15T07:22:02.510Z,101778.19
2018-09-15T07:24:32.551Z,101774.78
2018-09-15T07:27:02.739Z,101769.10
2018-09-15T07:29:32.823Z,101779.51
2018-09-15T07:32:03.039Z,101784.43
2018-09-15T07:34:33.134Z,101783.25
2018-09-15T07:37:03.252Z,101786.03
2018-09-15T07:39:33.449Z,101785.98
2018-09-15T07:42:03.530Z,101793.56
2018-09-15T07:44:33.619Z,101795.52
2018-09-15T07:47:03.729Z,101793.48
2018-09-15T07:49:33.838Z,101797.23
2018-09-15T07:52:03.970Z,101801.88
2018-09-15T07:54:34.103Z,101806.09
2018-09-15T07:57:04.321Z,101794.05
2018-09-15T07:59:34.479Z,101797.58
2018-09-15T08:02:08.563Z,101796.33
2018-09-15T08:04:38.670Z,101803.58
2018-09-15T08:07:08.769Z,101808.86
2018-09-15T08:09:38.782Z,101801.98
2018-09-15T08:12:08.897Z,101805.45
2018-09-15T08:14:38.940Z,101804.05
2018-09-15T08:17:09.176Z,101817.70
2018-09-15T08:19:39.341Z,101826.19
2018-09-15T08:22:09.449Z,101830.84
2018-09-15T08:24:39.565Z,101831.94
2018-09-15T08:27:09.750Z,101831.38
2018-09-15T08:29:39.823Z,101832.84
2018-09-15T08:32:09.968Z,101830.44
2018-09-15T08:34:39.969Z,101836.59
2018-09-15T08:37:10.090Z,101830.80
2018-09-15T08:39:40.190Z,101829.25
2018-09-15T08:42:10.311Z,101834.50
2018-09-15T08:44:40.384Z,101828.76
2018-09-15T08:47:10.582Z,101834.47
2018-09-15T08:49:40.693Z,101837.14
2018-09-15T08:52:10.881Z,101840.70
2018-09-15T08:54:41.046Z,101840.78
2018-09-15T08:57:11.232Z,101835.57
2018-09-15T08:59:47.140Z,101841.47
2018-09-15T09:02:17.318Z,101844.64
2018-09-15T09:04:47.403Z,101844.07
2018-09-15T09:07:17.625Z,101838.24
2018-09-15T09:09:47.698Z,101842.20
2018-09-15T09:12:17.762Z,101848.98
2018-09-15T09:14:47.899Z,101848.69
2018-09-15T09:17:18.039Z,101850.97
2018-09-15T09:19:49.488Z,101868.25
2018-09-15T09:22:19.543Z,101864.69
2018-09-15T09:24:50.364Z,101858.02
2018-09-15T09:27:20.501Z,101865.67
2018-09-15T09:29:51.160Z,101858.83
2018-09-15T09:32:21.353Z,101855.41
2018-09-15T09:34:52.426Z,101859.80
2018-09-15T09:37:22.606Z,101858.70
2018-09-15T09:39:52.712Z,101868.36
2018-09-15T09:42:23.609Z,101869.22
2018-09-15T09:44:53.682Z,101862.12
2018-09-15T09:47:25.787Z,101860.17
2018-09-15T09:49:56.060Z,101858.95
2018-09-15T09:52:26.319Z,101860.63
2018-09-15T09:54:56.480Z,101856.13
2018-09-15T09:57:26.643Z,101850.20
2018-09-15T09:59:56.818Z,101850.39
2018-09-15T10:02:28.160Z,101849.38
2018-09-15T10:04:58.438Z,101852.12
2018-09-15T10:07:28.590Z,101851.78
2018-09-15T10:09:58.672Z,101850.50
2018-09-15T10:12:28.805Z,101858.20
2018-09-15T10:14:58.951Z,101861.25
2018-09-15T10:17:29.065Z,101860.08
2018-09-15T10:19:59.138Z,101855.98
2018-09-15T10:22:29.281Z,101858.42
2018-09-15T10:24:59.928Z,101869.31
2018-09-15T10:27:30.149Z,101862.22
2018-09-15T10:30:04.661Z,101863.64
2018-09-15T10:32:34.770Z,101856.55
2018-09-15T10:35:04.845Z,101854.39
2018-09-15T10:37:35.067Z,101851.97
2018-09-15T10:40:05.324Z,101848.65
2018-09-15T10:42:35.698Z,101857.17
2018-09-15T10:45:12.338Z,101853.02
2018-09-15T10:47:43.160Z,101859.55
2018-09-15T10:50:14.012Z,101848.95
2018-09-15T10:52:44.156Z,101851.58
2018-09-15T10:55:14.209Z,101850.66
2018-09-15T10:57:44.305Z,101845.29
2018-09-15T11:00:14.913Z,101855.61
2018-09-15T11:02:44.980Z,101847.81
2018-09-15T11:05:15.012Z,101847.27
2018-09-15T11:07:45.177Z,101850.89
2018-09-15T11:10:15.328Z,101844.80
2018-09-15T11:12:45.508Z,101841.78
2018-09-15T11:15:15.514Z,101846.53
2018-09-15T11:17:46.351Z,101842.34
2018-09-15T11:20:16.463Z,101836.52
2018-09-15T11:22:47.270Z,101828.11
2018-09-15T11:25:17.376Z,101839.23
2018-09-15T11:27:49.643Z,101838.13
2018-09-15T11:30:20.100Z,101842.11
2018-09-15T11:32:50.202Z,101838.52
2018-09-15T11:35:20.288Z,101852.73
2018-09-15T11:37:50.404Z,101854.41
2018-09-15T11:40:21.321Z,101850.23
2018-09-15T11:42:51.610Z,101860.00
2018-09-15T11:45:21.743Z,101865.90
2018-09-15T11:47:51.901Z,101853.39
2018-09-15T11:50:21.964Z,101852.62
2018-09-15T11:52:52.103Z,101850.89
2018-09-15T11:55:22.289Z,101858.45
2018-09-15T11:57:52.724Z,101853.09
2018-09-15T12:00:26.694Z,101853.08
2018-09-15T12:02:57.272Z,101858.42
2018-09-15T12:05:27.380Z,101866.45
2018-09-15T12:07:57.578Z,101869.66
2018-09-15T12:10:39.173Z,101873.70
2018-09-15T12:13:09.702Z,101872.02
2018-09-15T12:15:42.728Z,101879.16
2018-09-15T12:18:12.871Z,101881.20
2018-09-15T12:20:43.302Z,101893.59
2018-09-15T12:23:13.685Z,101894.15
2018-09-15T12:25:43.895Z,101902.02
2018-09-15T12:28:14.014Z,101905.05
2018-09-15T12:30:44.132Z,101905.10
2018-09-15T12:33:14.201Z,101897.53
2018-09-15T12:35:44.509Z,101907.64
2018-09-15T12:38:14.692Z,101902.52
2018-09-15T12:40:44.825Z,101898.58
2018-09-15T12:43:14.922Z,101899.56
2018-09-15T12:45:44.985Z,101895.98
2018-09-15T12:48:15.052Z,101900.06
2018-09-15T12:50:45.285Z,101898.63
2018-09-15T12:53:15.357Z,101903.05
2018-09-15T12:55:45.409Z,101901.84
2018-09-15T12:58:15.666Z,101898.02
2018-09-15T13:00:45.893Z,101894.99
2018-09-15T13:03:16.055Z,101889.09
2018-09-15T13:05:46.209Z,101891.31
2018-09-15T13:08:17.026Z,101888.54
2018-09-15T13:10:47.130Z,101892.62
2018-09-15T13:13:17.212Z,101881.48
2018-09-15T13:15:47.292Z,101881.41
2018-09-15T13:18:17.380Z,101879.02
2018-09-15T13:20:47.484Z,101882.82
2018-09-15T13:23:17.591Z,101877.84
2018-09-15T13:25:47.792Z,101875.33
2018-09-15T13:28:17.905Z,101879.68
2018-09-15T13:30:48.126Z,101871.42
2018-09-15T13:33:18.223Z,101868.28
2018-09-15T13:35:48.318Z,101871.55
2018-09-15T13:38:18.562Z,101868.66
2018-09-15T13:40:48.785Z,101868.26
2018-09-15T13:43:18.980Z,101875.58
2018-09-15T13:45:49.080Z,101888.79
2018-09-15T13:48:19.230Z,101880.96
2018-09-15T13:50:49.319Z,101886.11
2018-09-15T13:53:19.544Z,101879.34
2018-09-15T13:55:49.623Z,101884.30
2018-09-15T13:58:19.754Z,101890.95
2018-09-15T14:00:49.823Z,101889.58
2018-09-15T14:03:19.890Z,101887.89
2018-09-15T14:05:49.963Z,101888.02
2018-09-15T14:08:20.063Z,101893.11
2018-09-15T14:10:50.153Z,101888.06
2018-09-15T14:13:20.358Z,101895.45
2018-09-15T14:15:50.524Z,101893.25
2018-09-15T14:18:21.474Z,101889.84
2018-09-15T14:20:51.578Z,101885.04
2018-09-15T14:23:21.762Z,101884.16
2018-09-15T14:25:51.830Z,101877.58
2018-09-15T14:28:21.969Z,101880.67
2018-09-15T14:30:52.041Z,101875.34
2018-09-15T14:33:22.149Z,101875.61
2018-09-15T14:35:52.246Z,101878.84
2018-09-15T14:38:22.384Z,101882.97
2018-09-15T14:40:52.443Z,101877.52
2018-09-15T14:43:22.552Z,101875.53
2018-09-15T14:45:52.591Z,101880.56
2018-09-15T14:48:22.853Z,101880.48
2018-09-15T14:50:52.896Z,101878.02
2018-09-15T14:53:23.012Z,101879.17
2018-09-15T14:55:53.209Z,101880.53
2018-09-15T14:58:23.473Z,101870.89
2018-09-15T15:00:53.592Z,101878.67
2018-09-15T15:03:23.770Z,101881.05
2018-09-15T15:05:53.840Z,101879.41
2018-09-15T15:08:24.100Z,101879.62
2018-09-15T15:10:54.154Z,101871.32
2018-09-15T15:13:24.470Z,101867.41
2018-09-15T15:15:54.527Z,101867.07
2018-09-15T15:18:26.046Z,101867.65
2018-09-15T15:20:56.193Z,101867.98
2018-09-15T15:23:26.356Z,101864.30
2018-09-15T15:25:56.459Z,101870.02
2018-09-15T15:28:26.587Z,101874.14
2018-09-15T15:30:56.689Z,101874.83
2018-09-15T15:33:26.838Z,101875.11
2018-09-15T15:35:57.007Z,101871.08
2018-09-15T15:38:27.135Z,101868.14
2018-09-15T15:40:57.200Z,101873.73
2018-09-15T15:43:27.357Z,101880.55
2018-09-15T15:45:57.408Z,101869.56
2018-09-15T15:48:27.565Z,101868.84
2018-09-15T15:50:57.758Z,101876.02
2018-09-15T15:53:27.896Z,101880.41
2018-09-15T15:55:58.641Z,101872.77
2018-09-15T15:58:28.796Z,101878.79
2018-09-15T16:00:58.891Z,101879.23
2018-09-15T16:03:28.970Z,101872.28
2018-09-15T16:05:59.151Z,101875.66
2018-09-15T16:08:29.285Z,101877.87
2018-09-15T16:10:59.346Z,101876.48
2018-09-15T16:13:32.454Z,101878.43
2018-09-15T16:16:02.537Z,101875.55
2018-09-15T16:18:32.686Z,101878.22
2018-09-15T16:21:02.860Z,101876.44
2018-09-15T16:23:32.961Z,101876.45
2018-09-15T16:26:03.025Z,101878.83
2018-09-15T16:28:33.129Z,101873.59
2018-09-15T16:31:03.191Z,101870.20
2018-09-15T16:33:33.295Z,101866.69
2018-09-15T16:36:03.383Z,101865.52
2018-09-15T16:38:33.598Z,101863.60
2018-09-15T16:41:03.744Z,101862.81
2018-09-15T16:43:33.818Z,101868.34
2018-09-15T16:46:04.045Z,101870.80
2018-09-15T16:48:34.274Z,101863.74
2018-09-15T16:51:04.425Z,101873.89
2018-09-15T16:53:34.581Z,101875.98
2018-09-15T16:56:04.709Z,101871.66
2018-09-15T16:58:34.841Z,101885.32
2018-09-15T17:01:05.048Z,101879.19
2018-09-15T17:03:35.212Z,101873.73
2018-09-15T17:06:05.525Z,101876.03
2018-09-15T17:08:35.644Z,101879.42
2018-09-15T17:11:05.855Z,101870.64
2018-09-15T17:13:35.900Z,101874.22
2018-09-15T17:16:05.972Z,101869.80
2018-09-15T17:18:36.162Z,101871.70
2018-09-15T17:21:06.248Z,101871.73
2018-09-15T17:23:36.436Z,101878.08
2018-09-15T17:26:06.569Z,101884.94
2018-09-15T17:28:36.675Z,101878.59
2018-09-15T17:31:06.827Z,101887.27
2018-09-15T17:33:37.017Z,101888.10
2018-09-15T17:36:07.135Z,101888.36
2018-09-15T17:38:37.300Z,101895.55
2018-09-15T17:41:07.397Z,101896.04
2018-09-15T17:43:37.516Z,101900.50
2018-09-15T17:46:07.749Z,101901.08
2018-09-15T17:48:37.858Z,101903.44
2018-09-15T17:51:08.018Z,101906.75
2018-09-15T17:53:38.167Z,101904.55
2018-09-15T17:56:08.290Z,101908.17
2018-09-15T17:58:38.422Z,101913.80
2018-09-15T18:01:08.553Z,101913.52
2018-09-15T18:03:38.697Z,101920.99
2018-09-15T18:06:08.815Z,101923.98
2018-09-15T18:08:38.971Z,101926.83
2018-09-15T18:11:09.176Z,101926.67
2018-09-15T18:13:39.287Z,101930.71
2018-09-15T18:16:09.389Z,101929.61
2018-09-15T18:18:39.556Z,101931.71
2018-09-15T18:21:09.648Z,101930.71
2018-09-15T18:23:39.731Z,101931.70
2018-09-15T18:26:09.870Z,101929.17
2018-09-15T18:28:39.990Z,101936.00
2018-09-15T18:31:10.090Z,101936.00
2018-09-15T18:33:40.241Z,101940.69
2018-09-15T18:36:10.403Z,101936.86
2018-09-15T18:38:40.470Z,101943.39
2018-09-15T18:41:10.619Z,101943.65
2018-09-15T18:43:40.704Z,101939.89
2018-09-15T18:46:10.805Z,101947.94
2018-09-15T18:48:40.872Z,101950.12
2018-09-15T18:51:10.926Z,101955.81
2018-09-15T18:53:41.125Z,101949.09
2018-09-15T18:56:11.219Z,101953.74
2018-09-15T18:58:41.334Z,101954.42
2018-09-15T19:01:11.413Z,101958.64
2018-09-15T19:03:41.563Z,101960.67
2018-09-15T19:06:11.630Z,101962.23
2018-09-15T19:08:41.903Z,101966.26
2018-09-15T19:11:12.024Z,101964.66
2018-09-15T19:13:42.154Z,101971.44
2018-09-15T19:16:12.316Z,101979.08
2018-09-15T19:18:42.497Z,101971.28
2018-09-15T19:21:12.761Z,101974.52
2018-09-15T19:23:42.915Z,101976.70
2018-09-15T19:26:13.276Z,101982.04
2018-09-15T19:28:43.390Z,101974.59
2018-09-15T19:31:13.412Z,101972.87
2018-09-15T19:33:43.486Z,101976.97
2018-09-15T19:36:13.610Z,101972.41
2018-09-15T19:38:43.813Z,101982.46
2018-09-15T19:41:13.923Z,101980.67
2018-09-15T19:43:44.044Z,101986.88
2018-09-15T19:46:14.138Z,101984.30
2018-09-15T19:48:44.196Z,101990.95
2018-09-15T19:51:14.288Z,101994.47
2018-09-15T19:53:44.360Z,101995.40
2018-09-15T19:56:14.415Z,102003.81
2018-09-15T19:58:44.511Z,102004.89
2018-09-15T20:01:14.572Z,102004.82
2018-09-15T20:03:44.646Z,102007.94
2018-09-15T20:06:14.736Z,102006.30
2018-09-15T20:08:44.851Z,102004.58
2018-09-15T20:11:14.978Z,101999.67
2018-09-15T20:13:45.204Z,102004.97
2018-09-15T20:16:13.243Z,102002.32
2018-09-15T20:18:41.270Z,101995.66
2018-09-15T20:21:09.356Z,102002.24
2018-09-15T20:23:42.304Z,102003.61
2018-09-15T20:26:12.395Z,101996.52
2018-09-15T20:28:42.493Z,102000.92
2018-09-15T20:31:12.763Z,102004.94
2018-09-15T20:33:42.933Z,102001.42
2018-09-15T20:36:13.075Z,102000.09
2018-09-15T20:38:43.222Z,102001.46
2018-09-15T20:41:13.351Z,102004.61
2018-09-15T20:43:43.648Z,102006.52
2018-09-15T20:46:13.784Z,102003.55
2018-09-15T20:48:43.877Z,102009.42
2018-09-15T20:51:14.007Z,102007.81
2018-09-15T20:53:44.096Z,102010.18
2018-09-15T20:56:14.284Z,102005.99
2018-09-15T20:58:44.412Z,102007.96
2018-09-15T21:01:14.531Z,102009.39
2018-09-15T21:03:44.729Z,102012.58
2018-09-15T21:06:14.868Z,102009.20
2018-09-15T21:08:44.984Z,102010.28
2018-09-15T21:11:15.166Z,102009.88
2018-09-15T21:13:45.244Z,102006.02
2018-09-15T21:16:15.383Z,102003.30
2018-09-15T21:18:46.021Z,102001.39
2018-09-15T21:21:16.082Z,102008.67
2018-09-15T21:23:46.120Z,102011.45
2018-09-15T21:26:16.226Z,102008.58
2018-09-15T21:28:46.295Z,102002.09
2018-09-15T21:31:16.404Z,102006.63
2018-09-15T21:33:46.439Z,102002.33
2018-09-15T21:36:16.556Z,102001.04
2018-09-15T21:38:46.728Z,101999.72
2018-09-15T21:41:17.003Z,102002.36
2018-09-15T21:43:47.153Z,102004.24
2018-09-15T21:46:17.304Z,102014.09
2018-09-15T21:48:47.440Z,102015.54
2018-09-15T21:51:17.768Z,102019.63
2018-09-15T21:53:47.954Z,102014.01
2018-09-15T21:56:18.031Z,102017.17
2018-09-15T21:58:48.209Z,102018.56
2018-09-15T22:01:18.338Z,102019.15
2018-09-15T22:03:53.475Z,102022.86
2018-09-15T22:06:23.562Z,102017.58
2018-09-15T22:08:53.635Z,102021.02
2018-09-15T22:11:23.708Z,102024.55
2018-09-15T22:13:53.764Z,102022.80
2018-09-15T22:16:23.911Z,102022.86
2018-09-15T22:18:53.982Z,102021.79
2018-09-15T22:21:24.065Z,102018.26
2018-09-15T22:23:54.255Z,102011.70
2018-09-15T22:26:24.441Z,102012.23
2018-09-15T22:28:54.542Z,102014.53
2018-09-15T22:31:24.674Z,102008.88
2018-09-15T22:33:54.889Z,102003.31
2018-09-15T22:36:25.935Z,102014.88
2018-09-15T22:38:56.011Z,102011.42
2018-09-15T22:41:26.141Z,102005.83
2018-09-15T22:43:56.249Z,102009.55
2018-09-15T22:46:26.372Z,102006.60
2018-09-15T22:48:56.434Z,101999.27
2018-09-15T22:51:26.521Z,102003.75
2018-09-15T22:53:56.647Z,101998.09
2018-09-15T22:56:26.805Z,101996.00
2018-09-15T22:58:56.968Z,101992.16
2018-09-15T23:01:27.002Z,101993.11
2018-09-15T23:04:02.158Z,101998.02
2018-09-15T23:06:32.593Z,101998.52
2018-09-15T23:09:02.736Z,101994.64
2018-09-15T23:11:32.804Z,102001.27
2018-09-15T23:14:02.845Z,102006.24
2018-09-15T23:16:32.960Z,102001.08
2018-09-15T23:19:03.116Z,102006.41
2018-09-15T23:21:33.354Z,102002.54
2018-09-15T23:24:03.520Z,102004.72
2018-09-15T23:26:33.646Z,102002.97
2018-09-15T23:29:03.732Z,102006.98
2018-09-15T23:31:33.891Z,102005.27
2018-09-15T23:34:04.048Z,101998.41
2018-09-15T23:36:34.145Z,101991.97
2018-09-15T23:39:05.086Z,102003.33
2018-09-15T23:41:35.201Z,101995.84
2018-09-15T23:44:05.342Z,101990.22
2018-09-15T23:46:35.464Z,101992.37
2018-09-15T23:49:05.537Z,101988.04
2018-09-15T23:51:35.637Z,101992.86
2018-09-15T23:54:05.694Z,101991.62
2018-09-15T23:56:35.768Z,101995.15
2018-09-15T23:59:06.143Z,101986.42
